KRZR

Details ICAO KRZR
Name Cleveland Regional Jetport
Region United States
Timezone America/New_York (UTC-5.0)
Plans Departing 5
Arriving 2
Stats Elevation 860 ft / 262 m (AMSL)
Location 35.211502° -84.799785°
Runways 1
Magnetic Variation 5.057° W
Sunrise 2017-12-17 12:43:10 UTC / 2017-12-17 07:43:10 Local
Sunset 2017-12-17 22:30:26 UTC / 2017-12-17 17:30:26 Local
Advertisement - Login to hide

Runways

ID Width Length Bearing (true) Bearing (mag) Surface Threshold Offset Overrun Length
03 100 ft / 30 m 5,512 ft / 1,680 m 29.03° 34.09° Concrete 0 ft / 0 m 0 ft / 0 m
21 100 ft / 30 m 5,512 ft / 1,680 m 209.03° 214.09° Concrete 0 ft / 0 m 0 ft / 0 m

Map

Weather


0- 5 10 15 20 25 30 35+ Temperature / ° C

Clouds and Precipitation
Forecast for 2017-12-18 00:00 UTC. Updated 27 minutes ago

Ground ~20,000 ft ~40,000 ft Winds

METAR

KRZR 172135Z AUTO 22003KT 7SM OVC025 06/06 A3013 RMK A01

TAF

Not found

Frequencies

Recorded 120.47 MHz AWOS
Approach 125.10 MHz Chattanooga APCH/DEP
Unicom 122.70 MHz CTAF
Departure 125.10 MHz Chattanooga APCH/DEP
Warning: Do not use this data for real-world aviation or navigation. No guarantee of current accuracy is given.